createdAt,value
2023-05-07T00:01:09.940Z,15.85
2023-05-07T00:03:39.169Z,15.84
2023-05-07T00:06:07.419Z,15.85
2023-05-07T00:08:36.174Z,15.84
2023-05-07T00:11:04.521Z,15.81
2023-05-07T00:13:36.430Z,15.79
2023-05-07T00:16:05.022Z,15.82
2023-05-07T00:18:34.686Z,15.83
2023-05-07T00:21:02.780Z,15.83
2023-05-07T00:23:30.778Z,15.78
2023-05-07T00:25:59.224Z,15.78
2023-05-07T00:28:27.383Z,15.73
2023-05-07T00:30:55.766Z,15.66
2023-05-07T00:33:24.511Z,15.66
2023-05-07T00:35:55.128Z,15.66
2023-05-07T00:38:23.022Z,15.63
2023-05-07T00:40:51.612Z,15.64
2023-05-07T00:43:20.243Z,15.59
2023-05-07T00:45:48.235Z,15.59
2023-05-07T00:48:16.667Z,15.60
2023-05-07T00:50:45.266Z,15.59
2023-05-07T00:53:14.974Z,15.57
2023-05-07T00:55:47.462Z,15.48
2023-05-07T00:58:15.560Z,15.46
2023-05-07T01:00:43.755Z,15.43
2023-05-07T01:03:11.999Z,15.43
2023-05-07T01:05:40.782Z,15.42
2023-05-07T01:08:09.377Z,15.45
2023-05-07T01:10:39.193Z,15.40
2023-05-07T01:13:08.001Z,15.36
2023-05-07T01:15:36.069Z,15.33
2023-05-07T01:18:04.828Z,15.29
2023-05-07T01:20:32.896Z,15.27
2023-05-07T01:23:03.334Z,15.23
2023-05-07T01:25:31.788Z,15.20
2023-05-07T01:28:01.101Z,15.21
2023-05-07T01:30:30.207Z,15.23
2023-05-07T01:33:05.126Z,15.12
2023-05-07T01:35:37.567Z,15.06
2023-05-07T01:38:07.929Z,14.99
2023-05-07T01:40:36.787Z,14.89
2023-05-07T01:43:05.213Z,14.83
2023-05-07T01:45:34.737Z,14.82
2023-05-07T01:48:04.320Z,14.73
2023-05-07T01:50:33.913Z,14.66
2023-05-07T01:53:03.577Z,14.67
2023-05-07T01:55:32.978Z,14.64
2023-05-07T01:58:01.323Z,14.70
2023-05-07T02:00:29.945Z,14.67
2023-05-07T02:02:58.084Z,14.71
2023-05-07T02:05:26.333Z,14.74
2023-05-07T02:07:54.329Z,14.71
2023-05-07T02:10:22.228Z,14.70
2023-05-07T02:12:51.720Z,14.72
2023-05-07T02:15:20.527Z,14.76
2023-05-07T02:18:02.274Z,14.76
2023-05-07T02:20:30.416Z,14.77
2023-05-07T02:22:58.785Z,14.74
2023-05-07T02:25:26.868Z,14.73
2023-05-07T02:27:56.601Z,14.67
2023-05-07T02:30:26.030Z,14.63
2023-05-07T02:32:54.355Z,14.53
2023-05-07T02:35:22.594Z,14.48
2023-05-07T02:37:50.608Z,14.46
2023-05-07T02:40:19.165Z,14.44
2023-05-07T02:42:47.078Z,14.41
2023-05-07T02:45:16.881Z,14.43
2023-05-07T02:47:45.214Z,14.46
2023-05-07T02:50:13.683Z,14.43
2023-05-07T02:52:42.167Z,14.41
2023-05-07T02:55:11.651Z,14.42
2023-05-07T02:57:39.523Z,14.43
2023-05-07T03:00:17.228Z,14.44
2023-05-07T03:02:45.500Z,14.45
2023-05-07T03:05:13.754Z,14.44
2023-05-07T03:07:42.037Z,14.44
2023-05-07T03:10:10.841Z,14.42
2023-05-07T03:12:38.912Z,14.38
2023-05-07T03:15:07.933Z,14.27
2023-05-07T03:17:37.701Z,14.13
2023-05-07T03:20:06.716Z,14.05
2023-05-07T03:22:35.097Z,13.96
2023-05-07T03:25:02.985Z,13.86
2023-05-07T03:27:31.153Z,13.79
2023-05-07T03:29:59.417Z,13.80
2023-05-07T03:32:27.474Z,13.82
2023-05-07T03:34:57.485Z,13.73
2023-05-07T03:37:25.886Z,13.64
2023-05-07T03:39:54.306Z,13.65
2023-05-07T03:42:22.696Z,13.71
2023-05-07T03:44:50.776Z,13.74
2023-05-07T03:47:18.963Z,13.71
2023-05-07T03:49:46.903Z,13.71
2023-05-07T03:52:16.548Z,13.77
2023-05-07T03:54:44.724Z,13.78
2023-05-07T03:57:12.606Z,13.76
2023-05-07T03:59:40.892Z,13.74
2023-05-07T04:02:09.239Z,13.71
2023-05-07T04:04:37.618Z,13.68
2023-05-07T04:07:05.598Z,13.60
2023-05-07T04:09:35.389Z,13.57
2023-05-07T04:12:03.679Z,13.53
2023-05-07T04:14:33.165Z,13.57
2023-05-07T04:17:01.789Z,13.62
2023-05-07T04:19:30.135Z,13.70
2023-05-07T04:21:58.324Z,13.76
2023-05-07T04:24:26.259Z,13.80
2023-05-07T04:26:56.160Z,13.83
2023-05-07T04:29:24.408Z,13.84
2023-05-07T04:31:52.712Z,13.88
2023-05-07T04:34:22.221Z,13.93
2023-05-07T04:36:50.616Z,13.97
2023-05-07T04:39:18.943Z,13.90
2023-05-07T04:41:46.822Z,13.90
2023-05-07T04:44:16.478Z,13.96
2023-05-07T04:46:44.415Z,14.03
2023-05-07T04:49:12.488Z,14.06
2023-05-07T04:51:44.936Z,14.14
2023-05-07T04:54:13.372Z,14.18
2023-05-07T04:56:41.948Z,14.25
2023-05-07T04:59:09.878Z,14.32
2023-05-07T05:01:39.316Z,14.38
2023-05-07T05:04:07.776Z,14.41
2023-05-07T05:06:36.558Z,14.44
2023-05-07T05:09:06.210Z,14.45
2023-05-07T05:11:34.384Z,14.42
2023-05-07T05:14:03.099Z,14.43
2023-05-07T05:16:31.284Z,14.38
2023-05-07T05:19:01.042Z,14.35
2023-05-07T05:21:29.057Z,14.35
2023-05-07T05:23:57.108Z,14.38
2023-05-07T05:26:25.055Z,14.37
2023-05-07T05:28:53.029Z,14.33
2023-05-07T05:31:21.027Z,14.31
2023-05-07T05:33:49.071Z,14.31
2023-05-07T05:36:18.989Z,14.36
2023-05-07T05:38:47.181Z,14.40
2023-05-07T05:41:15.177Z,14.45
2023-05-07T05:43:43.495Z,14.48
2023-05-07T05:46:12.885Z,14.59
2023-05-07T05:48:43.256Z,14.66
2023-05-07T05:51:11.193Z,14.72
2023-05-07T05:53:40.473Z,14.82
2023-05-07T05:56:09.345Z,14.92
2023-05-07T05:58:37.277Z,14.90
2023-05-07T06:01:06.236Z,14.90
2023-05-07T06:03:34.736Z,15.03
2023-05-07T06:06:02.955Z,15.22
2023-05-07T06:08:32.625Z,15.41
2023-05-07T06:11:03.798Z,15.49
2023-05-07T06:13:32.090Z,15.56
2023-05-07T06:16:00.484Z,15.71
2023-05-07T06:18:28.481Z,15.88
2023-05-07T06:20:57.010Z,16.04
2023-05-07T06:23:24.890Z,16.16
2023-05-07T06:25:53.517Z,16.33
2023-05-07T06:28:25.119Z,16.40
2023-05-07T06:30:53.664Z,16.44
2023-05-07T06:33:22.256Z,16.48
2023-05-07T06:35:50.378Z,16.58
2023-05-07T06:38:18.501Z,16.75
2023-05-07T06:40:50.833Z,16.94
2023-05-07T06:43:18.764Z,17.15
2023-05-07T06:45:48.317Z,17.46
2023-05-07T06:48:16.251Z,17.71
2023-05-07T06:50:44.757Z,18.01
2023-05-07T06:53:12.974Z,18.25
2023-05-07T06:55:41.044Z,18.32
2023-05-07T06:58:09.008Z,18.41
2023-05-07T07:00:37.167Z,18.38
2023-05-07T07:03:06.562Z,18.44
2023-05-07T07:05:35.092Z,18.68
2023-05-07T07:08:03.492Z,19.00
2023-05-07T07:10:31.431Z,19.17
2023-05-07T07:12:59.429Z,19.44
2023-05-07T07:15:28.502Z,19.49
2023-05-07T07:17:56.693Z,19.68
2023-05-07T07:20:26.548Z,19.87
2023-05-07T07:22:54.756Z,19.87
2023-05-07T07:25:23.097Z,20.06
2023-05-07T07:27:51.652Z,20.32
2023-05-07T07:30:19.899Z,20.48
2023-05-07T07:32:47.803Z,20.71
2023-05-07T07:35:16.074Z,20.98
2023-05-07T07:37:45.660Z,21.25
2023-05-07T07:40:14.528Z,21.46
2023-05-07T07:42:42.446Z,21.54
2023-05-07T07:45:11.199Z,21.63
2023-05-07T07:47:39.277Z,21.58
2023-05-07T07:50:08.361Z,21.51
2023-05-07T07:52:36.865Z,21.32
2023-05-07T07:55:08.063Z,21.23
2023-05-07T07:57:36.342Z,21.20
2023-05-07T08:00:05.065Z,21.37
2023-05-07T08:02:33.061Z,21.47
2023-05-07T08:05:02.052Z,21.46
2023-05-07T08:07:29.905Z,21.49
2023-05-07T08:09:57.935Z,21.55
2023-05-07T08:12:27.317Z,21.52
2023-05-07T08:14:55.247Z,21.42
2023-05-07T08:17:23.506Z,21.26
2023-05-07T08:19:51.464Z,21.11
2023-05-07T08:22:20.089Z,21.02
2023-05-07T08:24:48.058Z,21.01
2023-05-07T08:27:16.385Z,20.90
2023-05-07T08:29:48.536Z,20.84
2023-05-07T08:32:16.854Z,20.85
2023-05-07T08:34:44.780Z,20.88
2023-05-07T08:37:13.067Z,20.96
2023-05-07T08:39:41.059Z,20.98
2023-05-07T08:42:11.071Z,21.05
2023-05-07T08:44:40.787Z,21.18
2023-05-07T08:47:11.329Z,21.16
2023-05-07T08:49:39.560Z,21.22
2023-05-07T08:52:09.858Z,21.22
2023-05-07T08:54:39.928Z,21.26
2023-05-07T08:57:08.165Z,21.35
2023-05-07T08:59:36.863Z,21.49
2023-05-07T09:02:06.054Z,21.73
2023-05-07T09:04:37.087Z,22.08
2023-05-07T09:07:06.603Z,22.28
2023-05-07T09:09:34.803Z,22.60
2023-05-07T09:12:05.070Z,22.97
2023-05-07T09:14:33.509Z,23.24
2023-05-07T09:17:01.719Z,23.56
2023-05-07T09:19:30.217Z,23.84
2023-05-07T09:22:03.801Z,24.08
2023-05-07T09:24:35.994Z,24.26
2023-05-07T09:27:04.761Z,24.45
2023-05-07T09:29:36.409Z,24.68
2023-05-07T09:32:06.184Z,24.87
2023-05-07T09:34:34.931Z,25.07
2023-05-07T09:37:05.059Z,25.17
2023-05-07T09:39:42.029Z,25.34
2023-05-07T09:42:10.054Z,25.54
2023-05-07T09:44:38.439Z,25.51
2023-05-07T09:47:07.987Z,25.54
2023-05-07T09:49:37.766Z,25.69
2023-05-07T09:52:11.704Z,25.79
2023-05-07T09:54:41.404Z,25.88
2023-05-07T09:57:10.699Z,26.12
2023-05-07T09:59:40.626Z,26.13
2023-05-07T10:02:12.190Z,26.25
2023-05-07T10:04:42.079Z,26.17
2023-05-07T10:07:12.108Z,26.28
2023-05-07T10:09:43.404Z,26.13
2023-05-07T10:12:11.972Z,26.01
2023-05-07T10:14:40.445Z,26.19
2023-05-07T10:17:09.178Z,26.31
2023-05-07T10:19:39.054Z,26.32
2023-05-07T10:22:08.550Z,26.38
2023-05-07T10:24:39.052Z,26.37
2023-05-07T10:27:12.703Z,26.35
2023-05-07T10:29:51.625Z,26.20
2023-05-07T10:32:35.508Z,26.41
2023-05-07T10:35:07.205Z,26.49
2023-05-07T10:37:36.177Z,26.43
2023-05-07T10:40:08.111Z,26.47
2023-05-07T10:42:36.440Z,26.38
2023-05-07T10:45:15.682Z,26.59
2023-05-07T10:48:21.019Z,26.65
2023-05-07T10:51:21.499Z,26.80
2023-05-07T10:53:49.552Z,27.07
2023-05-07T10:56:31.782Z,27.14
2023-05-07T10:59:41.875Z,27.35
2023-05-07T11:02:12.339Z,27.35
2023-05-07T11:04:42.825Z,27.07
2023-05-07T11:07:38.244Z,26.80
2023-05-07T11:10:08.871Z,26.90
2023-05-07T11:12:55.566Z,26.96
2023-05-07T11:15:46.987Z,26.99
2023-05-07T11:18:16.563Z,27.21
2023-05-07T11:21:02.504Z,27.26
2023-05-07T11:23:59.788Z,27.21
2023-05-07T11:26:29.315Z,27.26
2023-05-07T11:29:01.215Z,27.36
2023-05-07T11:31:31.111Z,27.55
2023-05-07T11:34:00.596Z,27.56
2023-05-07T11:36:33.358Z,27.59
2023-05-07T11:39:01.347Z,27.62
2023-05-07T11:41:48.021Z,27.65
2023-05-07T11:44:17.311Z,27.65
2023-05-07T11:46:46.370Z,27.58
2023-05-07T11:49:14.481Z,27.38
2023-05-07T11:51:43.209Z,27.20
2023-05-07T11:54:12.511Z,26.92
2023-05-07T11:56:40.797Z,26.78
2023-05-07T11:59:09.193Z,26.73
2023-05-07T12:01:41.041Z,26.57
2023-05-07T12:04:12.024Z,26.47
2023-05-07T12:06:40.730Z,26.30
2023-05-07T12:09:12.555Z,26.19
2023-05-07T12:11:41.832Z,26.12
2023-05-07T12:14:12.234Z,26.03
2023-05-07T12:16:42.827Z,25.95
2023-05-07T12:19:15.741Z,25.92
2023-05-07T12:21:44.384Z,25.76
2023-05-07T12:24:12.304Z,25.57
2023-05-07T12:26:41.799Z,25.44
2023-05-07T12:29:09.930Z,25.24
2023-05-07T12:31:38.082Z,25.16
2023-05-07T12:34:07.586Z,25.02
2023-05-07T12:36:44.537Z,24.83
2023-05-07T12:39:12.776Z,24.71
2023-05-07T12:41:55.587Z,24.72
2023-05-07T12:44:24.987Z,24.53
2023-05-07T12:46:53.391Z,24.43
2023-05-07T12:49:25.189Z,24.33
2023-05-07T12:51:53.530Z,24.26
2023-05-07T12:54:31.910Z,24.13
2023-05-07T12:57:04.356Z,24.05
2023-05-07T12:59:36.253Z,23.94
2023-05-07T13:02:04.476Z,23.88
2023-05-07T13:04:34.322Z,23.77
2023-05-07T13:07:02.732Z,23.70
2023-05-07T13:09:31.194Z,23.59
2023-05-07T13:12:01.082Z,23.51
2023-05-07T13:14:29.262Z,23.40
2023-05-07T13:16:57.234Z,23.35
2023-05-07T13:19:25.439Z,23.22
2023-05-07T13:21:54.749Z,23.15
2023-05-07T13:24:22.721Z,23.15
2023-05-07T13:26:51.386Z,23.00
2023-05-07T13:29:19.303Z,22.81
2023-05-07T13:31:48.390Z,22.73
2023-05-07T13:34:17.223Z,22.71
2023-05-07T13:36:45.873Z,22.58
2023-05-07T13:39:15.271Z,22.28
2023-05-07T13:41:43.995Z,22.19
2023-05-07T13:44:12.548Z,21.92
2023-05-07T13:46:40.672Z,21.64
2023-05-07T13:49:08.939Z,21.43
2023-05-07T13:51:36.965Z,20.81
2023-05-07T13:54:05.292Z,20.61
2023-05-07T13:56:34.718Z,20.13
2023-05-07T13:59:03.378Z,20.11
2023-05-07T14:01:31.469Z,19.74
2023-05-07T14:04:00.585Z,19.43
2023-05-07T14:06:28.731Z,19.12
2023-05-07T14:08:59.086Z,19.02
2023-05-07T14:11:27.186Z,18.73
2023-05-07T14:13:57.947Z,18.46
2023-05-07T14:16:26.255Z,18.36
2023-05-07T14:18:58.190Z,18.32
2023-05-07T14:21:26.621Z,18.40
2023-05-07T14:23:54.704Z,18.30
2023-05-07T14:26:23.976Z,18.29
2023-05-07T14:28:51.990Z,18.30
2023-05-07T14:31:21.729Z,18.36
2023-05-07T14:33:51.113Z,18.33
2023-05-07T14:36:20.988Z,18.31
2023-05-07T14:38:49.339Z,18.34
2023-05-07T14:41:17.620Z,18.39
2023-05-07T14:43:51.370Z,18.44
2023-05-07T14:46:21.505Z,18.44
2023-05-07T14:48:49.919Z,18.44
2023-05-07T14:51:18.196Z,18.44
2023-05-07T14:53:46.982Z,18.31
2023-05-07T14:56:15.048Z,18.23
2023-05-07T14:58:43.373Z,18.18
2023-05-07T15:01:11.664Z,18.11
2023-05-07T15:03:42.666Z,18.14
2023-05-07T15:06:10.729Z,18.10
2023-05-07T15:08:38.846Z,18.08
2023-05-07T15:11:07.122Z,18.11
2023-05-07T15:13:35.588Z,18.10
2023-05-07T15:16:03.857Z,18.01
2023-05-07T15:18:31.951Z,18.00
2023-05-07T15:21:01.446Z,17.89
2023-05-07T15:23:29.849Z,17.91
2023-05-07T15:25:57.835Z,17.91
2023-05-07T15:28:26.201Z,17.76
2023-05-07T15:30:56.211Z,17.67
2023-05-07T15:33:24.364Z,17.75
2023-05-07T15:35:52.618Z,17.71
2023-05-07T15:38:22.357Z,17.69
2023-05-07T15:40:52.309Z,17.72
2023-05-07T15:43:25.144Z,17.69
2023-05-07T15:45:58.379Z,17.57
2023-05-07T15:48:26.841Z,17.55
2023-05-07T15:50:58.972Z,17.58
2023-05-07T15:53:35.060Z,17.57
2023-05-07T15:56:13.180Z,17.47
2023-05-07T15:58:45.131Z,17.36
2023-05-07T16:01:17.490Z,17.37
2023-05-07T16:03:49.812Z,17.50
2023-05-07T16:06:18.226Z,17.57
2023-05-07T16:08:50.490Z,17.55
2023-05-07T16:11:31.130Z,17.52
2023-05-07T16:14:01.644Z,17.55
2023-05-07T16:16:33.553Z,17.59
2023-05-07T16:19:03.480Z,17.62
2023-05-07T16:21:34.769Z,17.67
2023-05-07T16:24:22.030Z,17.68
2023-05-07T16:26:55.879Z,17.67
2023-05-07T16:29:26.990Z,17.53
2023-05-07T16:32:13.183Z,17.37
2023-05-07T16:34:51.879Z,17.37
2023-05-07T16:37:23.825Z,17.39
2023-05-07T16:39:54.060Z,17.44
2023-05-07T16:42:22.394Z,17.45
2023-05-07T16:44:50.345Z,17.42
2023-05-07T16:47:19.687Z,17.39
2023-05-07T16:49:51.942Z,17.38
2023-05-07T16:52:30.704Z,17.40
2023-05-07T16:55:02.235Z,17.36
2023-05-07T16:57:33.090Z,17.37
2023-05-07T17:00:05.997Z,17.45
2023-05-07T17:02:37.069Z,17.33
2023-05-07T17:05:09.405Z,17.35
2023-05-07T17:07:40.032Z,17.26
2023-05-07T17:10:11.253Z,17.29
2023-05-07T17:12:39.663Z,17.23
2023-05-07T17:15:08.961Z,17.16
2023-05-07T17:17:37.225Z,17.24
2023-05-07T17:20:06.741Z,17.19
2023-05-07T17:22:36.381Z,17.06
2023-05-07T17:25:14.874Z,16.99
2023-05-07T17:27:46.104Z,16.96
2023-05-07T17:30:18.015Z,16.97
2023-05-07T17:32:48.299Z,16.96
2023-05-07T17:35:17.786Z,16.93
2023-05-07T17:37:52.859Z,16.78
2023-05-07T17:40:29.696Z,16.78
2023-05-07T17:43:06.640Z,16.74
2023-05-07T17:45:41.616Z,16.73
2023-05-07T17:48:12.743Z,16.72
2023-05-07T17:50:40.878Z,16.74
2023-05-07T17:53:09.918Z,16.72
2023-05-07T17:55:42.333Z,16.71
2023-05-07T17:58:11.810Z,16.72
2023-05-07T18:00:39.866Z,16.77
2023-05-07T18:03:08.362Z,16.84
2023-05-07T18:05:37.818Z,16.94
2023-05-07T18:08:06.367Z,16.79
2023-05-07T18:10:34.350Z,16.77
2023-05-07T18:13:05.220Z,16.79
2023-05-07T18:19:29.654Z,16.67
2023-05-07T18:21:58.257Z,16.73
2023-05-07T18:24:27.406Z,16.79
2023-05-07T18:27:04.073Z,16.84
2023-05-07T18:29:32.033Z,16.83
2023-05-07T18:32:01.534Z,16.84
2023-05-07T18:34:29.643Z,16.84
2023-05-07T18:37:00.823Z,16.89
2023-05-07T18:39:28.869Z,16.85
2023-05-07T18:41:58.199Z,16.85
2023-05-07T18:44:26.673Z,16.85
2023-05-07T18:46:54.653Z,16.85
2023-05-07T18:49:24.274Z,16.84
2023-05-07T18:51:53.479Z,16.83
2023-05-07T18:54:22.026Z,16.84
2023-05-07T18:56:50.789Z,16.79
2023-05-07T18:59:22.227Z,16.79
2023-05-07T19:01:51.486Z,16.79
2023-05-07T19:04:20.398Z,16.78
2023-05-07T19:06:51.864Z,16.74
2023-05-07T19:09:23.309Z,16.63
2023-05-07T19:11:52.140Z,16.56
2023-05-07T19:14:22.507Z,16.61
2023-05-07T19:16:52.621Z,16.61
2023-05-07T19:19:22.062Z,16.61
2023-05-07T19:21:54.437Z,16.57
2023-05-07T19:24:22.378Z,16.56
2023-05-07T19:26:53.689Z,16.55
2023-05-07T19:29:22.164Z,16.53
2023-05-07T19:31:51.743Z,16.54
2023-05-07T19:34:24.090Z,16.54
2023-05-07T19:36:56.321Z,16.51
2023-05-07T19:39:35.931Z,16.48
2023-05-07T19:42:06.549Z,16.41
2023-05-07T19:44:34.761Z,16.40
2023-05-07T19:47:04.133Z,16.36
2023-05-07T19:49:32.262Z,16.39
2023-05-07T19:52:02.369Z,16.37
2023-05-07T19:54:31.182Z,16.36
2023-05-07T19:56:59.216Z,16.35
2023-05-07T19:59:28.396Z,16.38
2023-05-07T20:01:57.081Z,16.40
2023-05-07T20:04:33.232Z,16.40
2023-05-07T20:07:07.937Z,16.41
2023-05-07T20:09:36.179Z,16.38
2023-05-07T20:12:06.851Z,16.35
2023-05-07T20:14:35.216Z,16.40
2023-05-07T20:17:05.104Z,16.40
2023-05-07T20:19:33.491Z,16.37
2023-05-07T20:22:03.354Z,16.35
2023-05-07T20:24:32.159Z,16.33
2023-05-07T20:27:02.145Z,16.23
2023-05-07T20:29:32.801Z,16.21
2023-05-07T20:32:01.138Z,16.21
2023-05-07T20:34:29.865Z,16.20
2023-05-07T20:37:02.112Z,16.26
2023-05-07T20:39:33.706Z,16.19
2023-05-07T20:42:02.352Z,16.18
2023-05-07T20:44:34.042Z,16.04
2023-05-07T20:47:02.200Z,16.00
2023-05-07T20:49:30.300Z,15.84
2023-05-07T20:51:58.553Z,15.81
2023-05-07T20:54:28.304Z,15.78
2023-05-07T20:56:58.499Z,15.77
2023-05-07T20:59:27.101Z,15.81
2023-05-07T21:01:56.763Z,15.84
2023-05-07T21:04:27.307Z,15.85
2023-05-07T21:06:55.683Z,15.85
2023-05-07T21:09:24.272Z,15.87
2023-05-07T21:11:52.564Z,15.91
2023-05-07T21:14:22.036Z,15.97
2023-05-07T21:16:50.015Z,15.99
2023-05-07T21:19:18.111Z,15.99
2023-05-07T21:21:46.169Z,15.95
2023-05-07T21:24:14.215Z,15.97
2023-05-07T21:26:42.230Z,15.99
2023-05-07T21:29:10.706Z,15.96
2023-05-07T21:31:40.174Z,15.91
2023-05-07T21:34:08.819Z,15.80
2023-05-07T21:36:36.857Z,15.74
2023-05-07T21:39:05.038Z,15.73
2023-05-07T21:41:33.516Z,15.74
2023-05-07T21:44:01.732Z,15.72
2023-05-07T21:46:29.828Z,15.72
2023-05-07T21:48:59.331Z,15.61
2023-05-07T21:51:29.953Z,15.64
2023-05-07T21:53:57.873Z,15.66
2023-05-07T21:56:25.925Z,15.69
2023-05-07T21:58:53.893Z,15.76
2023-05-07T22:01:22.043Z,15.80
2023-05-07T22:03:50.302Z,15.81
2023-05-07T22:06:21.978Z,15.79
2023-05-07T22:08:50.378Z,15.76
2023-05-07T22:11:18.722Z,15.74
2023-05-07T22:13:47.039Z,15.70
2023-05-07T22:16:15.870Z,15.69
2023-05-07T22:18:44.670Z,15.70
2023-05-07T22:21:12.825Z,15.73
2023-05-07T22:23:42.759Z,15.73
2023-05-07T22:26:15.112Z,15.71
2023-05-07T22:28:45.703Z,15.72
2023-05-07T22:31:14.019Z,15.75
2023-05-07T22:33:42.565Z,15.77
2023-05-07T22:36:10.658Z,15.74
2023-05-07T22:38:38.611Z,15.75
2023-05-07T22:41:08.030Z,15.76
2023-05-07T22:43:36.077Z,15.79
2023-05-07T22:46:04.261Z,15.80
2023-05-07T22:48:33.616Z,15.80
2023-05-07T22:51:01.768Z,15.80
2023-05-07T22:53:29.829Z,15.81
2023-05-07T22:55:57.999Z,15.82
2023-05-07T22:58:27.495Z,15.81
2023-05-07T23:00:55.943Z,15.83
2023-05-07T23:03:24.260Z,15.78
2023-05-07T23:05:53.978Z,15.78
2023-05-07T23:08:25.163Z,15.76
2023-05-07T23:10:53.190Z,15.68
2023-05-07T23:13:21.602Z,15.64
2023-05-07T23:15:51.833Z,15.61
2023-05-07T23:18:20.363Z,15.59
2023-05-07T23:20:48.575Z,15.61
2023-05-07T23:23:17.111Z,15.61
2023-05-07T23:25:47.099Z,15.64
2023-05-07T23:28:15.260Z,15.65
2023-05-07T23:30:45.274Z,15.67
2023-05-07T23:33:14.880Z,15.69
2023-05-07T23:35:42.914Z,15.67
2023-05-07T23:38:10.980Z,15.70
2023-05-07T23:40:39.100Z,15.70
2023-05-07T23:43:07.130Z,15.72
2023-05-07T23:45:35.232Z,15.72
2023-05-07T23:48:03.714Z,15.74
2023-05-07T23:50:33.189Z,15.70
2023-05-07T23:53:01.355Z,15.72
2023-05-07T23:55:29.486Z,15.72
2023-05-07T23:57:57.562Z,15.71
